Time;durP1;ratioP1;P1;durP2;ratioP2;P2;SDS_P1;SDS_P2;PMS_P1;PMS_P2;Temp;Humidity;BMP_temperature;BMP_pressure;BME280_temperature;BME280_humidity;BME280_pressure;Samples;Min_cycle;Max_cycle;Signal;HPM_P1;HPM_P2
2020/12/28 00:00:58;;;;;;;20.23;8.37;;;;;;;7.31;100.00;94783.03;5071194;28;20196;-70
2020/12/28 00:03:25;;;;;;;12.33;5.73;;;;;;;7.32;100.00;94795.63;5071330;28;20196;-72
2020/12/28 00:05:53;;;;;;;21.90;8.77;;;;;;;7.56;100.00;94789.50;5071369;28;20656;-72
2020/12/28 00:08:20;;;;;;;10.10;6.40;;;;;;;7.49;100.00;94800.22;5071331;28;20736;-70
2020/12/28 00:10:47;;;;;;;13.77;8.47;;;;;;;7.37;100.00;94787.03;5071217;28;20599;-70
2020/12/28 00:13:14;;;;;;;9.43;5.70;;;;;;;7.38;100.00;94787.78;5071038;28;20626;-70
2020/12/28 00:15:42;;;;;;;16.37;8.20;;;;;;;7.40;100.00;94798.59;5070975;28;20228;-70
2020/12/28 00:18:10;;;;;;;11.90;6.13;;;;;;;7.51;100.00;94785.19;5070963;28;20235;-70
2020/12/28 00:20:38;;;;;;;9.13;6.10;;;;;;;7.55;100.00;94773.22;5071388;28;20743;-68
2020/12/28 00:23:05;;;;;;;8.97;5.37;;;;;;;7.55;100.00;94782.78;5070256;28;20252;-70
2020/12/28 00:25:31;;;;;;;9.57;5.63;;;;;;;7.46;100.00;94793.06;5070957;28;20720;-70
2020/12/28 00:27:58;;;;;;;12.53;8.40;;;;;;;7.21;100.00;94796.16;5070914;28;20286;-70
2020/12/28 00:30:25;;;;;;;16.17;9.60;;;;;;;7.01;100.00;94786.97;5070739;28;20204;-70
2020/12/28 00:32:52;;;;;;;13.13;7.17;;;;;;;7.27;100.00;94776.91;5070901;28;20242;-69
2020/12/28 00:35:19;;;;;;;15.03;7.73;;;;;;;7.37;100.00;94776.72;5070977;28;20242;-70
2020/12/28 00:37:47;;;;;;;17.53;8.63;;;;;;;7.30;100.00;94790.00;5070778;28;20213;-70
2020/12/28 00:40:14;;;;;;;15.03;8.47;;;;;;;7.19;100.00;94780.94;5070781;28;20192;-70
2020/12/28 00:42:40;;;;;;;15.13;8.70;;;;;;;7.18;100.00;94776.03;5070650;28;20286;-71
2020/12/28 00:45:09;;;;;;;13.67;9.30;;;;;;;7.10;100.00;94784.47;5070385;28;20274;-70
2020/12/28 00:47:36;;;;;;;12.83;7.70;;;;;;;7.08;100.00;94778.81;5070536;28;20203;-71
2020/12/28 00:50:04;;;;;;;10.57;6.77;;;;;;;7.06;100.00;94771.38;5070531;28;20249;-71
2020/12/28 00:52:31;;;;;;;13.60;8.10;;;;;;;7.10;100.00;94769.75;5070500;28;20216;-68
2020/12/28 00:54:59;;;;;;;13.37;7.90;;;;;;;7.05;100.00;94761.31;5070245;28;20224;-71
2020/12/28 00:57:26;;;;;;;24.57;12.43;;;;;;;7.05;100.00;94756.16;5070240;28;20196;-71
2020/12/28 00:59:52;;;;;;;77.40;35.47;;;;;;;7.04;100.00;94757.22;5070168;28;20192;-71
2020/12/28 01:02:19;;;;;;;39.90;19.50;;;;;;;6.90;100.00;94768.31;5070075;28;20736;-71
2020/12/28 01:04:46;;;;;;;12.97;7.23;;;;;;;6.76;100.00;94764.97;5070074;28;20196;-72
2020/12/28 01:07:14;;;;;;;11.80;5.93;;;;;;;6.68;100.00;94765.63;5070169;28;20616;-72
2020/12/28 01:09:41;;;;;;;18.47;8.37;;;;;;;6.63;100.00;94775.28;5070257;28;20252;-71
2020/12/28 01:12:09;;;;;;;8.07;4.30;;;;;;;6.43;99.36;94784.13;5070166;28;20193;-70
2020/12/28 01:14:36;;;;;;;7.33;4.50;;;;;;;6.23;100.00;94792.97;5070034;28;20681;-70
2020/12/28 01:17:03;;;;;;;9.40;4.77;;;;;;;6.11;100.00;94802.97;5069996;28;20215;-71
2020/12/28 01:19:30;;;;;;;25.23;9.53;;;;;;;6.14;100.00;94801.63;5069985;28;20245;-70
2020/12/28 01:21:57;;;;;;;53.07;16.93;;;;;;;6.19;100.00;94806.72;5069899;28;20690;-71
2020/12/28 01:24:24;;;;;;;13.00;5.83;;;;;;;6.16;100.00;94809.88;5069807;28;20668;-69
2020/12/28 01:26:51;;;;;;;9.80;5.57;;;;;;;6.14;100.00;94791.31;5070083;28;20195;-71
2020/12/28 01:29:18;;;;;;;82.43;19.87;;;;;;;6.30;100.00;94782.28;5069854;28;20623;-70
2020/12/28 01:31:45;;;;;;;57.37;16.77;;;;;;;6.24;100.00;94786.00;5069901;28;20223;-70
2020/12/28 01:34:13;;;;;;;19.73;6.80;;;;;;;6.09;100.00;94804.28;5069596;28;20196;-68
2020/12/28 01:36:40;;;;;;;6.67;3.97;;;;;;;6.12;100.00;94790.84;5069822;28;20745;-70
2020/12/28 01:39:07;;;;;;;50.17;16.67;;;;;;;6.01;100.00;94772.97;5069712;28;20198;-70
2020/12/28 01:41:33;;;;;;;106.03;28.47;;;;;;;6.17;100.00;94765.75;5070378;28;20203;-71
2020/12/28 01:44:00;;;;;;;96.47;29.93;;;;;;;6.29;100.00;94767.84;5069768;28;20223;-69
2020/12/28 01:46:29;;;;;;;91.30;30.30;;;;;;;6.23;100.00;94766.41;5069741;28;20199;-70
2020/12/28 01:48:55;;;;;;;66.93;22.57;;;;;;;6.13;100.00;94764.75;5069924;28;20218;-70
2020/12/28 01:51:23;;;;;;;41.23;15.00;;;;;;;6.01;100.00;94770.38;5069690;28;20202;-70
2020/12/28 01:53:51;;;;;;;14.33;7.10;;;;;;;5.94;100.00;94751.91;5069702;28;20283;-68
2020/12/28 01:56:20;;;;;;;12.30;6.40;;;;;;;5.91;100.00;94747.34;5070051;28;20239;-71
2020/12/28 01:58:47;;;;;;;8.57;5.73;;;;;;;6.01;100.00;94747.19;5069680;28;20207;-71
2020/12/28 02:01:16;;;;;;;28.77;13.23;;;;;;;6.49;100.00;94736.56;5069810;28;20686;-70
2020/12/28 02:03:44;;;;;;;8.90;5.30;;;;;;;7.05;100.00;94725.16;5069814;28;20196;-71
2020/12/28 02:06:11;;;;;;;15.47;8.33;;;;;;;7.34;100.00;94718.59;5069828;28;20666;-71
2020/12/28 02:08:39;;;;;;;16.07;8.90;;;;;;;7.40;100.00;94727.00;5069603;28;20283;-72
2020/12/28 02:11:06;;;;;;;12.80;7.47;;;;;;;7.24;100.00;94734.31;5069748;28;20197;-71
2020/12/28 02:13:33;;;;;;;12.20;7.30;;;;;;;7.27;100.00;94730.41;5069598;28;20551;-72
2020/12/28 02:16:00;;;;;;;14.37;8.07;;;;;;;7.24;100.00;94739.47;5069491;28;20361;-71
2020/12/28 02:18:27;;;;;;;26.03;12.03;;;;;;;7.25;100.00;94746.19;5069441;28;20279;-68
2020/12/28 02:20:54;;;;;;;18.00;9.67;;;;;;;7.33;100.00;94737.75;5069543;28;20663;-71
2020/12/28 02:23:22;;;;;;;24.87;11.93;;;;;;;7.30;100.00;94740.16;5069400;28;20189;-71
2020/12/28 02:25:49;;;;;;;20.33;9.37;;;;;;;7.29;99.81;94736.78;5069432;28;20188;-70
2020/12/28 02:28:16;;;;;;;10.23;5.57;;;;;;;6.95;99.89;94743.44;5069441;28;20270;-72
2020/12/28 02:30:43;;;;;;;8.50;5.37;;;;;;;6.86;100.00;94751.88;5069414;28;20616;-68
2020/12/28 02:33:10;;;;;;;10.47;5.77;;;;;;;6.71;100.00;94744.41;5069284;28;20193;-69
2020/12/28 02:35:37;;;;;;;10.83;6.27;;;;;;;6.62;100.00;94751.31;5069511;28;20232;-72
2020/12/28 02:38:04;;;;;;;126.73;36.97;;;;;;;6.64;100.00;94749.19;5069194;28;20222;-71
2020/12/28 02:40:32;;;;;;;47.17;17.63;;;;;;;6.83;100.00;94762.75;5069153;28;20193;-71
2020/12/28 02:42:58;;;;;;;34.17;14.23;;;;;;;6.82;100.00;94776.72;5068971;28;20573;-71
2020/12/28 02:45:26;;;;;;;26.17;13.57;;;;;;;6.85;100.00;94768.41;5069379;28;20275;-71
2020/12/28 02:47:55;;;;;;;24.30;14.70;;;;;;;7.01;100.00;94762.97;5072570;28;20283;-69
2020/12/28 02:50:23;;;;;;;31.30;18.47;;;;;;;7.13;100.00;94755.47;5072975;28;20196;-72
2020/12/28 02:52:51;;;;;;;17.73;12.33;;;;;;;7.16;100.00;94773.75;5072607;28;20278;-69
2020/12/28 02:55:20;;;;;;;13.03;7.37;;;;;;;7.04;100.00;94767.53;5072384;28;20371;-69
2020/12/28 02:57:49;;;;;;;19.90;9.03;;;;;;;7.06;100.00;94768.03;5072716;28;20402;-73
2020/12/28 03:00:17;;;;;;;23.43;12.60;;;;;;;7.12;100.00;94774.63;5072533;28;20247;-71
2020/12/28 03:02:45;;;;;;;19.90;11.13;;;;;;;7.07;100.00;94767.75;5072601;28;20288;-70
2020/12/28 03:05:13;;;;;;;15.77;10.40;;;;;;;7.09;100.00;94775.19;5072642;28;20196;-70
2020/12/28 03:07:40;;;;;;;40.03;16.10;;;;;;;7.15;100.00;94776.63;5072731;28;20224;-71
2020/12/28 03:10:07;;;;;;;31.47;13.13;;;;;;;7.10;100.00;94766.41;5072705;28;20274;-69
2020/12/28 03:12:33;;;;;;;11.93;7.17;;;;;;;7.01;100.00;94762.97;5072551;28;20199;-70
2020/12/28 03:15:02;;;;;;;15.80;10.13;;;;;;;6.99;100.00;94776.16;5072259;28;20224;-70
2020/12/28 03:17:28;;;;;;;22.30;14.20;;;;;;;7.03;100.00;94755.66;5072254;28;20200;-70
2020/12/28 03:23:18;;;;;;;12.30;9.00;;;;;;;7.08;100.00;94742.66;5072261;28;20190;-72
2020/12/28 03:25:45;;;;;;;14.40;9.33;;;;;;;6.82;100.00;94748.31;5072071;28;20193;-70
2020/12/28 03:28:12;;;;;;;9.37;6.87;;;;;;;6.80;100.00;94752.25;5072424;28;20203;-71
2020/12/28 03:30:40;;;;;;;11.27;5.67;;;;;;;6.69;100.00;94756.06;5072027;28;20199;-69
2020/12/28 03:33:06;;;;;;;12.23;7.67;;;;;;;6.68;100.00;94752.72;5072069;28;20277;-71
2020/12/28 03:35:33;;;;;;;25.53;12.83;;;;;;;6.69;100.00;94751.66;5071954;28;20228;-71
2020/12/28 03:38:00;;;;;;;16.77;9.50;;;;;;;6.81;100.00;94754.56;5071726;28;20278;-70
2020/12/28 03:40:27;;;;;;;14.87;9.10;;;;;;;6.72;100.00;94761.44;5071932;28;20202;-72
2020/12/28 03:42:53;;;;;;;15.43;9.40;;;;;;;6.61;100.00;94770.41;5071558;28;20287;-71
2020/12/28 03:45:20;;;;;;;15.70;9.73;;;;;;;6.61;100.00;94774.81;5071835;28;20193;-72
2020/12/28 03:47:48;;;;;;;13.20;8.87;;;;;;;6.83;100.00;94749.84;5071698;28;20675;-69
2020/12/28 03:50:15;;;;;;;23.20;10.97;;;;;;;6.87;100.00;94758.53;5071497;28;20676;-71
2020/12/28 03:52:42;;;;;;;18.30;10.13;;;;;;;6.87;100.00;94775.88;5071873;28;20204;-71
2020/12/28 03:55:09;;;;;;;17.13;10.37;;;;;;;6.78;100.00;94773.19;5071408;28;20227;-71
2020/12/28 03:57:36;;;;;;;15.33;10.10;;;;;;;6.66;100.00;94772.91;5071279;28;20193;-70
2020/12/28 04:00:04;;;;;;;12.97;9.03;;;;;;;6.58;100.00;94776.13;5071509;28;20203;-71
2020/12/28 04:02:31;;;;;;;15.03;9.37;;;;;;;6.45;100.00;94782.81;5071690;28;20192;-71
2020/12/28 04:04:59;;;;;;;16.43;10.13;;;;;;;6.55;100.00;94773.34;5071514;28;20573;-72
2020/12/28 04:07:26;;;;;;;30.77;16.20;;;;;;;6.72;100.00;94776.94;5071423;28;20210;-71
2020/12/28 04:09:53;;;;;;;17.77;9.83;;;;;;;6.74;100.00;94790.31;5071292;28;20257;-72
2020/12/28 04:12:19;;;;;;;13.17;9.00;;;;;;;6.85;100.00;94777.97;5071247;28;20195;-71
2020/12/28 04:14:47;;;;;;;12.17;9.37;;;;;;;6.95;100.00;94771.84;5071216;28;20275;-71
2020/12/28 04:17:14;;;;;;;13.80;9.57;;;;;;;6.91;100.00;94782.00;5071025;28;20211;-70
2020/12/28 04:19:40;;;;;;;17.40;11.93;;;;;;;6.75;100.00;94784.09;5071353;28;20196;-70
2020/12/28 04:22:08;;;;;;;23.53;15.27;;;;;;;6.72;100.00;94782.09;5071133;28;20203;-71
2020/12/28 04:24:35;;;;;;;24.80;15.50;;;;;;;6.64;100.00;94787.13;5070913;28;20188;-70
2020/12/28 04:27:02;;;;;;;24.90;16.47;;;;;;;6.52;100.00;94792.78;5071007;28;20222;-70
2020/12/28 04:29:29;;;;;;;30.53;18.40;;;;;;;6.42;100.00;94782.63;5070917;28;20200;-71
2020/12/28 04:31:55;;;;;;;25.80;15.67;;;;;;;6.58;100.00;94765.81;5070795;28;20249;-70
2020/12/28 04:34:22;;;;;;;22.07;13.87;;;;;;;6.83;100.00;94762.00;5071172;28;20200;-72
2020/12/28 04:36:49;;;;;;;22.67;14.57;;;;;;;6.64;100.00;94775.00;5070712;28;20228;-70
2020/12/28 04:39:17;;;;;;;23.00;14.33;;;;;;;6.53;100.00;94783.97;5070870;28;20205;-70
2020/12/28 04:41:43;;;;;;;19.30;13.60;;;;;;;6.59;100.00;94788.00;5071076;28;20207;-70
2020/12/28 04:44:10;;;;;;;26.53;17.70;;;;;;;6.71;100.00;94790.88;5070299;28;20264;-71
2020/12/28 04:46:37;;;;;;;31.07;18.70;;;;;;;6.78;100.00;94796.41;5070737;28;20201;-71
2020/12/28 04:49:04;;;;;;;37.73;19.63;;;;;;;6.68;100.00;94811.31;5070675;28;20189;-70
2020/12/28 04:51:32;;;;;;;31.73;18.20;;;;;;;6.59;100.00;94805.28;5070466;28;20188;-68
2020/12/28 04:53:59;;;;;;;42.60;20.27;;;;;;;6.51;100.00;94817.03;5070567;28;20230;-71
2020/12/28 04:56:27;;;;;;;22.57;13.50;;;;;;;6.34;100.00;94827.13;5070241;28;20236;-70
2020/12/28 04:58:55;;;;;;;19.07;12.47;;;;;;;6.32;100.00;94821.50;5071010;28;20202;-70
2020/12/28 05:01:21;;;;;;;15.27;10.90;;;;;;;6.35;100.00;94824.25;5070914;28;20269;-70
2020/12/28 05:03:50;;;;;;;14.97;10.43;;;;;;;6.54;100.00;94823.44;5070334;28;20225;-70
2020/12/28 05:06:16;;;;;;;13.80;9.13;;;;;;;6.73;100.00;94819.75;5070646;28;20203;-71
2020/12/28 05:08:44;;;;;;;13.40;9.67;;;;;;;7.04;100.00;94819.19;5070184;28;20204;-70
2020/12/28 05:11:13;;;;;;;11.30;8.60;;;;;;;7.17;100.00;94821.03;5070385;28;20265;-71
2020/12/28 05:13:47;;;;;;;14.60;10.27;;;;;;;7.20;100.00;94835.94;5070347;28;20199;-72
2020/12/28 05:16:15;;;;;;;14.37;10.20;;;;;;;7.14;100.00;94839.69;5070259;28;20228;-71
2020/12/28 05:18:41;;;;;;;10.93;8.33;;;;;;;7.11;100.00;94840.25;5070188;28;20191;-71
2020/12/28 05:21:09;;;;;;;13.37;8.17;;;;;;;7.40;100.00;94832.97;5070289;28;20274;-71
2020/12/28 05:23:35;;;;;;;11.50;7.77;;;;;;;7.64;100.00;94806.88;5070097;28;20192;-72
2020/12/28 05:26:06;;;;;;;11.87;8.87;;;;;;;7.52;100.00;94830.66;5069855;28;20671;-72
2020/12/28 05:28:38;;;;;;;13.23;9.17;;;;;;;7.50;100.00;94832.78;5070272;28;20196;-71
2020/12/28 05:31:07;;;;;;;10.43;7.50;;;;;;;7.62;100.00;94843.38;5070194;28;20235;-71
2020/12/28 05:33:35;;;;;;;12.77;7.70;;;;;;;7.58;100.00;94845.00;5069866;28;20192;-70
2020/12/28 05:36:03;;;;;;;14.60;7.90;;;;;;;7.56;100.00;94869.63;5069819;28;20220;-67
2020/12/28 05:38:31;;;;;;;14.60;9.20;;;;;;;7.51;100.00;94877.50;5070571;28;20219;-71
2020/12/28 05:41:03;;;;;;;10.23;7.63;;;;;;;7.61;100.00;94865.13;5069887;28;20200;-71
2020/12/28 05:43:30;;;;;;;10.23;6.10;;;;;;;7.77;100.00;94868.91;5069925;28;20224;-71
2020/12/28 05:46:00;;;;;;;9.27;5.10;;;;;;;7.78;100.00;94870.44;5070057;28;20229;-69
2020/12/28 05:48:27;;;;;;;28.90;12.27;;;;;;;7.89;100.00;94868.41;5069786;28;20196;-71
2020/12/28 05:50:56;;;;;;;20.43;9.67;;;;;;;7.92;100.00;94856.75;5069870;28;20570;-72
2020/12/28 05:53:27;;;;;;;13.53;8.93;;;;;;;7.98;99.38;94865.91;5069787;28;20193;-71
2020/12/28 05:55:55;;;;;;;14.10;8.00;;;;;;;8.06;98.56;94871.16;5069555;28;20231;-71
2020/12/28 05:58:22;;;;;;;22.23;9.23;;;;;;;8.02;99.81;94869.47;5069725;28;20192;-70
2020/12/28 06:00:50;;;;;;;18.73;9.60;;;;;;;8.04;99.23;94877.69;5069792;28;20197;-69
2020/12/28 06:03:26;;;;;;;12.33;8.13;;;;;;;8.16;97.75;94883.88;5069740;28;20677;-71
2020/12/28 06:05:55;;;;;;;12.50;7.67;;;;;;;8.15;98.47;94882.34;5069743;28;20230;-72
2020/12/28 06:08:21;;;;;;;16.47;9.23;;;;;;;8.15;98.93;94884.16;5069609;28;20203;-72
2020/12/28 06:10:49;;;;;;;55.53;29.90;;;;;;;8.06;99.30;94891.09;5069591;28;20248;-71
2020/12/28 06:13:24;;;;;;;7.03;5.07;;;;;;;8.19;98.60;94898.06;5069654;28;20239;-69
2020/12/28 06:16:01;;;;;;;51.07;26.17;;;;;;;8.18;98.32;94899.09;5069411;28;20702;-71
2020/12/28 06:18:28;;;;;;;20.83;10.80;;;;;;;8.16;97.83;94888.28;5069416;28;20188;-70
2020/12/28 06:20:56;;;;;;;9.33;6.27;;;;;;;8.30;97.36;94891.63;5070376;28;20226;-71
2020/12/28 06:23:26;;;;;;;7.23;4.03;;;;;;;8.44;95.92;94892.34;5073078;28;20197;-72
2020/12/28 06:25:53;;;;;;;13.33;6.40;;;;;;;8.60;94.12;94906.47;5073168;28;20548;-72
2020/12/28 06:28:24;;;;;;;9.57;4.90;;;;;;;8.72;94.38;94910.38;5073234;28;20195;-69
2020/12/28 06:30:51;;;;;;;7.17;3.83;;;;;;;8.81;93.47;94914.53;5073045;28;20192;-73
2020/12/28 06:33:18;;;;;;;4.77;2.77;;;;;;;8.79;94.13;94915.88;5073064;28;20192;-73
2020/12/28 06:35:45;;;;;;;2.53;2.00;;;;;;;8.69;96.36;94916.88;5073002;28;20281;-70
2020/12/28 06:38:24;;;;;;;5.87;3.00;;;;;;;8.54;96.66;94906.88;5072898;28;20212;-72
2020/12/28 06:40:51;;;;;;;20.10;10.13;;;;;;;8.62;95.89;94896.56;5072993;28;20188;-71
2020/12/28 06:43:20;;;;;;;10.23;6.30;;;;;;;8.72;93.21;94894.81;5072570;28;20289;-71
2020/12/28 06:45:48;;;;;;;5.40;2.73;;;;;;;8.86;91.77;94916.25;5073161;28;20203;-67
2020/12/28 06:48:18;;;;;;;13.43;4.40;;;;;;;8.83;93.80;94920.16;5072864;28;20189;-71
2020/12/28 06:50:45;;;;;;;19.93;9.50;;;;;;;8.72;94.90;94916.28;5072695;28;20200;-72
2020/12/28 06:53:13;;;;;;;39.40;23.87;;;;;;;8.56;95.74;94921.06;5072656;28;20283;-72
2020/12/28 06:55:39;;;;;;;39.53;23.60;;;;;;;8.53;97.10;94911.28;5072546;28;20224;-71
2020/12/28 06:58:06;;;;;;;38.83;23.23;;;;;;;8.46;97.93;94936.06;5072411;28;20203;-73
2020/12/28 07:00:33;;;;;;;68.37;33.83;;;;;;;8.19;100.00;94942.81;5072652;28;20196;-72
2020/12/28 07:03:01;;;;;;;37.90;18.93;;;;;;;8.16;99.05;94924.53;5072347;28;20641;-72
2020/12/28 07:05:28;;;;;;;33.17;19.33;;;;;;;8.20;98.38;94943.59;5072601;28;20215;-73
2020/12/28 07:07:54;;;;;;;43.83;25.40;;;;;;;8.07;100.00;94950.31;5072430;28;20199;-70
2020/12/28 07:10:24;;;;;;;57.83;34.17;;;;;;;8.23;98.84;94963.69;5072178;28;20196;-72
2020/12/28 07:12:52;;;;;;;44.73;24.70;;;;;;;8.21;98.94;94960.66;5072243;28;20199;-72
2020/12/28 07:15:19;;;;;;;28.73;18.40;;;;;;;8.19;98.18;94957.56;5072191;28;20224;-67
2020/12/28 07:17:46;;;;;;;28.80;17.87;;;;;;;8.15;99.22;94959.22;5072603;28;20211;-72
2020/12/28 07:20:14;;;;;;;22.93;15.37;;;;;;;8.22;97.94;94942.22;5072178;28;20196;-71
2020/12/28 07:22:43;;;;;;;23.03;14.60;;;;;;;8.27;97.77;94950.97;5072268;28;20237;-72
2020/12/28 07:25:11;;;;;;;38.23;22.90;;;;;;;8.27;99.19;94941.34;5072169;28;20656;-71
2020/12/28 07:27:41;;;;;;;32.80;21.20;;;;;;;8.27;99.79;94943.19;5072229;28;20283;-71
2020/12/28 07:30:08;;;;;;;38.73;24.67;;;;;;;8.20;99.72;94943.59;5071793;28;20200;-71
2020/12/28 07:32:36;;;;;;;26.23;16.43;;;;;;;8.28;99.67;94939.53;5071347;28;20207;-72
2020/12/28 07:35:04;;;;;;;31.50;20.33;;;;;;;8.36;99.17;94934.47;5071875;28;20196;-72
2020/12/28 07:37:31;;;;;;;14.30;6.57;;;;;;;8.40;98.16;94927.66;5071770;28;20212;-72
2020/12/28 07:39:58;;;;;;;14.87;9.80;;;;;;;8.36;97.79;94929.28;5071921;28;20193;-71
2020/12/28 07:42:27;;;;;;;25.77;14.57;;;;;;;8.36;98.43;94937.06;5072026;28;20202;-73
2020/12/28 07:44:57;;;;;;;45.63;24.57;;;;;;;8.26;98.88;94942.44;5072051;28;20229;-70
2020/12/28 07:47:41;;;;;;;40.27;23.57;;;;;;;8.34;98.19;94934.00;5072395;28;20207;-72
2020/12/28 07:50:09;;;;;;;18.50;10.53;;;;;;;8.56;96.72;94936.63;5072029;28;20211;-73
2020/12/28 07:52:43;;;;;;;77.73;48.33;;;;;;;8.51;98.48;94931.56;5071875;28;20209;-73
2020/12/28 07:55:17;;;;;;;55.57;34.07;;;;;;;8.42;98.71;94930.69;5071465;28;20257;-73
2020/12/28 07:58:02;;;;;;;21.83;13.33;;;;;;;8.43;97.08;94924.47;5071577;28;20196;-73
2020/12/28 08:00:34;;;;;;;13.77;7.87;;;;;;;8.45;96.15;94930.13;5071399;28;20578;-72
2020/12/28 08:03:13;;;;;;;8.80;4.70;;;;;;;8.84;95.78;94910.56;5071654;28;20647;-73
2020/12/28 08:05:40;;;;;;;7.03;4.27;;;;;;;9.31;91.89;94907.31;5071395;28;20200;-72
2020/12/28 08:08:18;;;;;;;5.97;2.93;;;;;;;9.54;90.93;94912.44;5071279;28;20199;-73
2020/12/28 08:10:51;;;;;;;5.17;2.97;;;;;;;9.87;92.35;94906.56;5071024;28;20196;-73
2020/12/28 08:13:24;;;;;;;7.20;3.40;;;;;;;9.85;89.94;94907.94;5071117;28;20204;-72
2020/12/28 08:15:52;;;;;;;3.93;2.90;;;;;;;9.74;90.98;94904.09;5071122;28;20232;-71
2020/12/28 08:18:22;;;;;;;4.30;3.00;;;;;;;9.90;92.56;94905.22;5070979;28;20212;-72
2020/12/28 08:20:58;;;;;;;5.50;3.20;;;;;;;9.92;90.86;94913.44;5070938;28;20288;-72
2020/12/28 08:23:26;;;;;;;6.53;3.07;;;;;;;10.02;91.37;94910.56;5070991;28;20203;-71
2020/12/28 08:25:53;;;;;;;13.07;6.30;;;;;;;10.32;91.82;94911.53;5070831;28;20193;-72
2020/12/28 08:28:20;;;;;;;45.93;27.27;;;;;;;10.50;91.34;94891.53;5070807;28;20688;-72
2020/12/28 08:30:48;;;;;;;54.67;33.27;;;;;;;10.54;90.51;94898.41;5070847;28;20566;-74
2020/12/28 08:33:18;;;;;;;38.93;23.53;;;;;;;10.61;89.77;94895.34;5071462;28;20189;-73
2020/12/28 08:35:53;;;;;;;117.13;60.90;;;;;;;10.64;90.44;94892.13;5070527;28;20670;-72
2020/12/28 08:38:32;;;;;;;130.47;63.60;;;;;;;10.61;88.70;94885.69;5070355;28;20227;-71
2020/12/28 08:40:59;;;;;;;35.77;18.60;;;;;;;10.81;88.43;94881.69;5070691;28;20206;-73
2020/12/28 08:43:25;;;;;;;38.00;24.87;;;;;;;10.98;88.75;94880.88;5069921;28;20315;-73
2020/12/28 08:46:02;;;;;;;22.80;12.97;;;;;;;11.13;86.97;94885.59;5070297;28;20193;-72
2020/12/28 08:48:29;;;;;;;35.50;19.47;;;;;;;11.00;87.26;94889.91;5070446;28;20230;-74
2020/12/28 08:50:56;;;;;;;48.40;24.07;;;;;;;11.18;87.44;94891.38;5070371;28;20192;-73
2020/12/28 08:53:24;;;;;;;51.73;24.10;;;;;;;11.31;86.52;94889.66;5070427;28;20222;-73
2020/12/28 08:56:00;;;;;;;7.30;5.50;;;;;;;11.44;84.53;94888.69;5070083;28;20224;-71
2020/12/28 08:58:28;;;;;;;171.57;67.63;;;;;;;11.44;85.64;94886.09;5070035;28;20604;-73
2020/12/28 09:00:55;;;;;;;153.10;64.67;;;;;;;11.54;86.66;94871.97;5070604;28;20203;-73
2020/12/28 09:03:22;;;;;;;56.23;27.20;;;;;;;11.60;85.43;94865.50;5070320;28;20232;-73
2020/12/28 09:05:49;;;;;;;26.93;14.90;;;;;;;11.69;85.34;94868.06;5070258;28;20267;-73
2020/12/28 09:08:16;;;;;;;11.27;6.37;;;;;;;11.84;82.49;94865.69;5070166;28;20284;-72
2020/12/28 09:10:43;;;;;;;28.70;13.83;;;;;;;11.70;84.68;94862.53;5070259;28;20691;-73
2020/12/28 09:13:10;;;;;;;9.53;6.33;;;;;;;11.88;82.59;94863.22;5070017;28;20212;-73
2020/12/28 09:15:36;;;;;;;124.97;44.70;;;;;;;11.83;82.70;94860.81;5069840;28;20238;-73
2020/12/28 09:18:03;;;;;;;9.53;5.57;;;;;;;11.96;80.44;94850.13;5070297;28;20204;-74
2020/12/28 09:20:30;;;;;;;8.43;5.30;;;;;;;11.88;80.53;94856.19;5070249;28;20631;-74
2020/12/28 09:22:58;;;;;;;11.57;5.77;;;;;;;11.88;80.94;94865.81;5070430;28;20223;-71
2020/12/28 09:25:24;;;;;;;18.77;8.00;;;;;;;11.85;82.43;94869.06;5070113;28;20192;-70
2020/12/28 09:27:51;;;;;;;148.33;45.83;;;;;;;11.99;81.52;94862.53;5070590;28;20196;-74
2020/12/28 09:30:18;;;;;;;35.73;13.83;;;;;;;12.23;79.22;94858.53;5070575;28;20519;-71
2020/12/28 09:32:45;;;;;;;653.53;238.90;;;;;;;12.19;79.19;94860.25;5070064;28;20589;-72
2020/12/28 09:35:12;;;;;;;334.53;99.97;;;;;;;12.03;81.03;94857.47;5070238;28;20192;-71
2020/12/28 09:37:38;;;;;;;113.33;37.00;;;;;;;12.01;79.37;94852.56;5070194;28;20760;-69
2020/12/28 09:40:07;;;;;;;152.97;45.00;;;;;;;12.06;81.02;94843.78;5070025;28;20323;-72
2020/12/28 09:42:34;;;;;;;277.40;76.03;;;;;;;12.23;80.21;94846.28;5070154;28;20674;-67
2020/12/28 09:45:01;;;;;;;279.83;80.10;;;;;;;12.32;80.24;94833.16;5069725;28;20232;-70
2020/12/28 09:47:28;;;;;;;208.17;60.47;;;;;;;12.59;79.24;94826.66;5069906;28;20275;-70
2020/12/28 09:49:54;;;;;;;48.73;18.83;;;;;;;12.55;78.13;94838.81;5069759;28;20279;-71
2020/12/28 09:52:21;;;;;;;67.97;20.87;;;;;;;12.61;77.41;94847.94;5069801;28;20232;-70
2020/12/28 09:54:48;;;;;;;154.93;47.50;;;;;;;12.75;76.91;94828.31;5070372;28;20193;-71
2020/12/28 09:57:16;;;;;;;350.53;99.87;;;;;;;12.78;76.85;94830.28;5073740;28;20678;-68
2020/12/28 09:59:43;;;;;;;119.50;37.80;;;;;;;12.87;74.50;94827.56;5073785;28;20200;-70
2020/12/28 10:02:09;;;;;;;274.23;76.80;;;;;;;12.61;74.84;94820.03;5073776;28;20188;-71
2020/12/28 10:04:36;;;;;;;532.53;176.07;;;;;;;12.47;75.92;94816.94;5073588;28;20668;-71
2020/12/28 10:07:03;;;;;;;87.87;30.77;;;;;;;12.49;76.72;94802.53;5073413;28;20196;-71
2020/12/28 10:09:30;;;;;;;103.97;33.57;;;;;;;12.80;75.58;94803.91;5073580;28;20197;-68
2020/12/28 10:11:57;;;;;;;200.13;60.43;;;;;;;13.01;73.48;94803.78;5073408;28;20202;-72
2020/12/28 10:14:24;;;;;;;64.30;21.53;;;;;;;13.01;74.39;94790.75;5073456;28;20663;-70
2020/12/28 10:16:51;;;;;;;120.33;39.67;;;;;;;13.09;71.92;94802.94;5073317;28;20703;-68
2020/12/28 10:19:18;;;;;;;72.00;24.73;;;;;;;13.18;71.77;94787.97;5073733;28;20204;-70
2020/12/28 10:21:45;;;;;;;99.00;34.67;;;;;;;13.28;71.88;94795.38;5073314;28;20188;-70
2020/12/28 10:24:11;;;;;;;110.23;38.30;;;;;;;13.33;70.37;94797.75;5073284;28;20193;-71
2020/12/28 10:26:38;;;;;;;30.00;11.63;;;;;;;13.38;69.85;94797.53;5073009;28;20197;-70
2020/12/28 10:29:05;;;;;;;98.93;35.90;;;;;;;13.33;68.46;94787.31;5073132;28;20280;-70
2020/12/28 10:31:33;;;;;;;110.07;39.73;;;;;;;13.43;67.39;94783.50;5073252;28;20660;-72
2020/12/28 10:34:00;;;;;;;23.73;10.80;;;;;;;13.45;64.80;94784.69;5073016;28;20195;-70
2020/12/28 10:36:28;;;;;;;52.10;21.20;;;;;;;13.49;65.97;94785.56;5072969;28;20774;-72
2020/12/28 10:38:57;;;;;;;26.73;11.00;;;;;;;13.44;67.55;94787.63;5073054;28;20220;-71
2020/12/28 10:41:24;;;;;;;49.63;20.93;;;;;;;13.31;65.22;94779.03;5072929;28;20611;-72
2020/12/28 10:43:51;;;;;;;155.53;57.60;;;;;;;13.35;66.67;94765.00;5072935;28;20309;-70
2020/12/28 10:46:18;;;;;;;8.90;4.50;;;;;;;13.52;64.47;94768.47;5072726;28;20735;-71
2020/12/28 10:48:46;;;;;;;4.70;3.30;;;;;;;13.52;63.41;94769.25;5072684;28;20561;-72
2020/12/28 10:51:13;;;;;;;7.23;4.17;;;;;;;13.57;65.80;94766.41;5072909;28;20616;-71
2020/12/28 10:53:40;;;;;;;49.07;21.67;;;;;;;13.77;63.26;94764.72;5072601;28;20192;-71
2020/12/28 10:56:07;;;;;;;16.00;6.87;;;;;;;13.85;63.68;94769.06;5072855;28;20236;-72
2020/12/28 10:58:34;;;;;;;48.90;21.97;;;;;;;13.85;63.02;94760.47;5072573;28;20197;-71
2020/12/28 11:01:01;;;;;;;48.73;21.73;;;;;;;13.71;63.35;94761.59;5072441;28;20192;-69
2020/12/28 11:03:28;;;;;;;3.40;2.10;;;;;;;13.60;60.91;94755.28;5072371;28;20246;-70
2020/12/28 11:05:56;;;;;;;4.87;1.73;;;;;;;13.36;62.02;94763.16;5072662;28;20203;-70
2020/12/28 11:08:22;;;;;;;3.43;1.47;;;;;;;13.41;62.62;94762.94;5071211;28;20206;-70
2020/12/28 11:10:49;;;;;;;1.93;1.03;;;;;;;13.61;60.89;94756.06;5072207;28;20283;-72
2020/12/28 11:13:16;;;;;;;1.17;0.87;;;;;;;13.81;61.84;94752.53;5071989;28;20643;-70
2020/12/28 11:15:44;;;;;;;1.27;0.87;;;;;;;13.80;62.75;94743.16;5072074;28;20224;-70
2020/12/28 11:18:10;;;;;;;1.20;0.67;;;;;;;13.79;62.46;94742.44;5072125;28;20222;-72
2020/12/28 11:20:37;;;;;;;1.80;0.87;;;;;;;13.67;63.18;94732.00;5071867;28;20197;-69
2020/12/28 11:23:05;;;;;;;3.70;0.90;;;;;;;13.42;62.08;94733.16;5072302;28;20199;-72
2020/12/28 11:25:33;;;;;;;2.17;1.30;;;;;;;13.28;63.32;94727.53;5071930;28;20914;-74
2020/12/28 11:27:59;;;;;;;1.90;0.60;;;;;;;13.26;60.83;94735.66;5072078;28;20242;-72
2020/12/28 11:30:26;;;;;;;2.80;0.80;;;;;;;12.94;64.18;94729.47;5072096;28;20667;-73